Time;durP1;ratioP1;P1;durP2;ratioP2;P2;SDS_P1;SDS_P2;PMS_P1;PMS_P2;Temp;Humidity;BMP_temperature;BMP_pressure;BME280_temperature;BME280_humidity;BME280_pressure;Samples;Min_cycle;Max_cycle;Signal;HPM_P1;HPM_P2
2023/08/20 00:02:25;;;;;;;9.15;5.93;;;;;;;20.02;100.00;-18565.38;5026015;28;20072;-79
2023/08/20 00:04:51;;;;;;;8.32;5.82;;;;;;;20.10;100.00;-18567.53;5020728;28;20084;-78
2023/08/20 00:07:18;;;;;;;8.07;5.30;;;;;;;20.04;100.00;-18565.91;5025072;28;20049;-78
2023/08/20 00:09:43;;;;;;;8.38;5.53;;;;;;;19.99;100.00;-18564.69;5023914;28;20555;-79
2023/08/20 00:12:09;;;;;;;9.52;5.55;;;;;;;19.85;100.00;-18560.88;5017929;28;20038;-78
2023/08/20 00:14:55;;;;;;;6.68;4.85;;;;;;;19.92;100.00;-18562.78;5022687;28;20049;-78
2023/08/20 00:17:21;;;;;;;10.38;5.60;;;;;;;19.96;100.00;-18563.88;5022864;28;20049;-78
2023/08/20 00:19:47;;;;;;;14.05;6.25;;;;;;;20.02;100.00;-18565.50;5023515;28;20038;-78
2023/08/20 00:22:14;;;;;;;14.30;5.95;;;;;;;19.88;100.00;-18561.56;5025254;28;20582;-78
2023/08/20 00:24:40;;;;;;;8.55;5.15;;;;;;;19.87;100.00;-18561.41;5021626;28;20053;-78
2023/08/20 00:27:05;;;;;;;10.35;5.80;;;;;;;19.80;100.00;-18559.66;5024809;28;20037;-79
2023/08/20 00:29:30;;;;;;;9.68;5.97;;;;;;;19.73;100.00;-18557.59;5021460;28;20050;-78
2023/08/20 00:31:55;;;;;;;9.90;5.22;;;;;;;19.66;100.00;-18555.84;5019517;28;20037;-79
2023/08/20 00:34:21;;;;;;;8.73;5.38;;;;;;;19.69;100.00;-18556.53;5024208;28;20050;-78
2023/08/20 00:36:46;;;;;;;10.40;5.35;;;;;;;19.66;100.00;-18555.84;5016993;28;20040;-79
2023/08/20 00:39:11;;;;;;;6.88;4.90;;;;;;;19.65;100.00;-18555.41;5024571;28;20041;-78
2023/08/20 00:41:37;;;;;;;9.25;5.65;;;;;;;19.79;100.00;-18559.38;5026665;28;20052;-79
2023/08/20 00:44:03;;;;;;;7.85;4.30;;;;;;;19.79;100.00;-18559.38;5025204;28;20049;-78
2023/08/20 00:46:29;;;;;;;10.18;5.00;;;;;;;19.84;100.00;-18560.59;5027311;28;20570;-78
2023/08/20 00:48:55;;;;;;;9.50;5.22;;;;;;;19.50;100.00;-18551.47;5029498;28;20049;-79
2023/08/20 00:51:22;;;;;;;8.32;5.07;;;;;;;19.35;100.00;-18547.53;5024720;28;20041;-78
2023/08/20 00:53:47;;;;;;;9.50;5.28;;;;;;;19.38;100.00;-18548.34;5024609;28;20494;-79
2023/08/20 00:56:13;;;;;;;8.40;5.25;;;;;;;19.37;100.00;-18548.19;5028179;28;20041;-79
2023/08/20 00:58:38;;;;;;;9.23;5.00;;;;;;;19.38;100.00;-18548.34;5026948;28;20052;-79
2023/08/20 01:01:03;;;;;;;8.23;5.13;;;;;;;19.27;100.00;-18545.34;5028482;28;20053;-79
2023/08/20 01:03:29;;;;;;;11.77;5.13;;;;;;;19.29;100.00;-18545.88;5024596;28;20110;-79
2023/08/20 01:06:18;;;;;;;8.48;5.50;;;;;;;19.43;100.00;-18549.69;5021565;28;20468;-79
2023/08/20 01:08:50;;;;;;;6.72;5.28;;;;;;;19.43;100.00;-18549.69;5009595;28;20114;-79
2023/08/20 01:11:29;;;;;;;8.95;4.53;;;;;;;19.36;100.00;-18547.94;5018632;28;20045;-79
2023/08/20 01:13:55;;;;;;;8.13;5.05;;;;;;;19.29;100.00;-18545.88;5028422;28;20129;-78
2023/08/20 01:16:20;;;;;;;9.40;4.70;;;;;;;19.17;100.00;-18542.75;5016718;28;20054;-79
2023/08/20 01:18:47;;;;;;;8.77;5.65;;;;;;;19.22;100.00;-18544.13;5024051;28;20058;-79
2023/08/20 01:21:39;;;;;;;10.60;5.70;;;;;;;19.23;100.00;-18544.25;5024175;28;20040;-78
2023/08/20 01:24:32;;;;;;;9.73;5.15;;;;;;;19.28;100.00;-18545.63;5027235;28;20072;-78
2023/08/20 01:27:16;;;;;;;10.40;5.20;;;;;;;19.38;100.00;-18548.47;5021250;28;20072;-79
2023/08/20 01:29:42;;;;;;;10.55;5.60;;;;;;;19.24;100.00;-18544.53;5026124;28;20065;-79
2023/08/20 01:32:08;;;;;;;8.80;5.18;;;;;;;19.06;100.00;-18539.91;5030006;28;20040;-78
2023/08/20 01:34:33;;;;;;;11.05;6.30;;;;;;;19.31;100.00;-18546.56;5025565;28;20103;-78
2023/08/20 01:36:59;;;;;;;9.45;5.70;;;;;;;19.30;100.00;-18546.16;5026748;28;20049;-78
2023/08/20 01:39:24;;;;;;;11.00;6.25;;;;;;;19.22;100.00;-18543.97;5026106;28;20132;-79
2023/08/20 01:41:50;;;;;;;8.73;5.47;;;;;;;19.47;100.00;-18550.78;5021240;28;20064;-79
2023/08/20 01:44:15;;;;;;;9.52;5.38;;;;;;;19.45;100.00;-18550.09;5028940;28;20097;-78
2023/08/20 01:46:40;;;;;;;7.50;5.30;;;;;;;19.55;100.00;-18552.84;5027104;28;20054;-78
2023/08/20 01:49:06;;;;;;;11.00;6.53;;;;;;;19.39;100.00;-18548.75;5028623;28;20038;-78
2023/08/20 01:51:31;;;;;;;11.02;6.32;;;;;;;19.31;100.00;-18546.44;5025010;28;20037;-78
2023/08/20 01:53:56;;;;;;;11.60;5.82;;;;;;;19.39;100.00;-18548.59;5028513;28;20067;-79
2023/08/20 01:56:22;;;;;;;10.32;6.15;;;;;;;19.59;100.00;-18554.06;5038764;22;20073;-81
2023/08/20 01:58:47;;;;;;;9.38;5.70;;;;;;;19.54;100.00;-18552.56;4994644;28;20057;-81
2023/08/20 02:01:12;;;;;;;12.90;6.10;;;;;;;19.42;100.00;-18549.44;4991869;28;20035;-81
2023/08/20 02:03:38;;;;;;;8.90;5.47;;;;;;;19.49;100.00;-18551.34;4980478;28;20046;-80
2023/08/20 02:06:04;;;;;;;11.00;5.70;;;;;;;19.45;100.00;-18550.09;4991047;28;20035;-80
2023/08/20 02:08:29;;;;;;;9.38;5.50;;;;;;;19.41;100.00;-18549.16;4991946;28;20106;-80
2023/08/20 02:11:02;;;;;;;9.77;5.97;;;;;;;19.16;100.00;-18542.47;4995353;28;20038;-80
2023/08/20 02:13:28;;;;;;;10.70;5.93;;;;;;;19.23;100.00;-18544.25;4996174;28;20049;-80
2023/08/20 02:16:03;;;;;;;9.32;5.63;;;;;;;19.32;100.00;-18546.72;4985828;28;20043;-81
2023/08/20 02:18:30;;;;;;;14.50;6.85;;;;;;;19.32;100.00;-18546.72;4979461;28;20074;-81
2023/08/20 02:20:55;;;;;;;10.65;6.45;;;;;;;19.23;100.00;-18544.38;4987977;28;20050;-80
2023/08/20 02:23:21;;;;;;;10.10;6.72;;;;;;;19.31;100.00;-18546.44;4984309;28;20047;-80
2023/08/20 02:25:47;;;;;;;11.55;6.80;;;;;;;19.36;100.00;-18547.78;4996318;28;20541;-80
2023/08/20 02:28:12;;;;;;;15.65;8.13;;;;;;;19.23;100.00;-18544.25;4982340;28;20193;-81
2023/08/20 02:30:41;;;;;;;12.55;6.65;;;;;;;19.30;100.00;-18546.16;4990969;28;20167;-81
2023/08/20 02:33:07;;;;;;;10.75;6.75;;;;;;;19.43;100.00;-18549.56;4992898;28;20146;-81
2023/08/20 02:35:32;;;;;;;9.02;6.13;;;;;;;19.47;100.00;-18550.78;4978728;28;20054;-81
2023/08/20 02:37:57;;;;;;;8.25;5.95;;;;;;;19.25;100.00;-18544.94;4984639;28;20098;-81
2023/08/20 02:40:23;;;;;;;9.15;6.43;;;;;;;19.26;100.00;-18545.06;4986064;28;20147;-81
2023/08/20 02:42:48;;;;;;;10.18;6.20;;;;;;;19.27;100.00;-18545.34;4983921;28;20069;-81
2023/08/20 02:45:13;;;;;;;11.55;6.70;;;;;;;19.37;100.00;-18548.06;4978953;28;20047;-81
2023/08/20 02:47:39;;;;;;;14.20;7.22;;;;;;;19.39;100.00;-18548.59;4983892;28;20107;-80
2023/08/20 02:50:04;;;;;;;9.45;6.72;;;;;;;19.61;100.00;-18554.47;5002778;28;20050;-80
2023/08/20 02:52:30;;;;;;;13.73;7.53;;;;;;;19.35;100.00;-18547.53;4988823;28;20042;-80
2023/08/20 02:54:55;;;;;;;16.42;8.27;;;;;;;19.47;100.00;-18550.66;4984413;28;20885;-81
2023/08/20 02:57:21;;;;;;;12.65;8.63;;;;;;;19.31;100.00;-18546.44;4991169;28;20741;-80
2023/08/20 02:59:46;;;;;;;13.80;8.90;;;;;;;19.26;100.00;-18545.22;4983245;28;20042;-81
2023/08/20 03:02:12;;;;;;;19.95;10.23;;;;;;;19.43;100.00;-18549.69;4989197;28;20138;-81
2023/08/20 03:04:37;;;;;;;15.15;10.50;;;;;;;19.55;100.00;-18552.97;4988970;28;20092;-81
2023/08/20 03:07:03;;;;;;;19.08;10.48;;;;;;;19.46;100.00;-18550.38;4987011;28;20070;-81
2023/08/20 03:09:28;;;;;;;18.05;11.52;;;;;;;19.47;100.00;-18550.66;4984215;28;20042;-81
2023/08/20 03:11:53;;;;;;;16.17;10.70;;;;;;;19.51;100.00;-18551.88;5005553;28;20077;-81
2023/08/20 03:14:19;;;;;;;22.10;12.02;;;;;;;19.45;100.00;-18550.25;4990382;28;20121;-81
2023/08/20 03:16:44;;;;;;;15.35;10.88;;;;;;;19.54;100.00;-18552.69;4983989;28;20049;-81
2023/08/20 03:19:09;;;;;;;17.30;11.10;;;;;;;19.50;100.00;-18551.47;4982473;28;20112;-80
2023/08/20 03:21:35;;;;;;;17.58;11.15;;;;;;;19.48;100.00;-18550.94;4980479;28;20051;-81
2023/08/20 03:24:00;;;;;;;16.02;10.77;;;;;;;19.45;100.00;-18550.25;4979013;28;20118;-81
2023/08/20 03:26:25;;;;;;;18.33;11.88;;;;;;;19.51;100.00;-18551.88;4977511;28;20498;-81
2023/08/20 03:28:51;;;;;;;17.95;11.65;;;;;;;19.44;100.00;-18549.84;4988340;28;20051;-80
2023/08/20 03:31:17;;;;;;;17.05;10.63;;;;;;;19.48;100.00;-18551.06;4981535;28;20038;-81
2023/08/20 03:33:42;;;;;;;18.73;10.93;;;;;;;19.36;100.00;-18547.94;4984393;28;20046;-81
2023/08/20 03:36:07;;;;;;;16.63;10.38;;;;;;;19.37;100.00;-18548.06;4974030;28;20073;-81
2023/08/20 03:38:33;;;;;;;17.90;10.77;;;;;;;19.29;100.00;-18546.03;4979054;28;20042;-81
2023/08/20 03:40:58;;;;;;;17.10;10.65;;;;;;;19.33;100.00;-18546.97;4984841;28;20588;-80
2023/08/20 03:43:24;;;;;;;17.08;10.52;;;;;;;19.46;100.00;-18550.53;4980507;28;20161;-81
2023/08/20 03:45:53;;;;;;;15.27;10.60;;;;;;;19.37;100.00;-18548.06;4982515;28;20046;-82
2023/08/20 03:48:18;;;;;;;19.63;11.25;;;;;;;19.38;100.00;-18548.34;4984251;28;20497;-82
2023/08/20 03:50:44;;;;;;;18.15;11.65;;;;;;;19.49;100.00;-18551.19;4984073;28;20041;-81
2023/08/20 03:53:09;;;;;;;18.75;10.65;;;;;;;19.37;100.00;-18548.06;4995075;28;20064;-87
2023/08/20 03:55:35;;;;;;;18.08;10.68;;;;;;;19.39;100.00;-18548.59;4993920;28;20501;-83
2023/08/20 03:58:00;;;;;;;19.17;11.85;;;;;;;19.31;100.00;-18546.56;4979529;28;20539;-83
2023/08/20 04:00:25;;;;;;;19.95;12.07;;;;;;;19.32;100.00;-18546.72;4980995;28;20581;-83
2023/08/20 04:02:51;;;;;;;20.25;11.57;;;;;;;19.44;100.00;-18549.84;4982333;28;20068;-82
2023/08/20 04:05:16;;;;;;;20.50;11.57;;;;;;;19.53;100.00;-18552.44;4979912;28;20556;-82
2023/08/20 04:07:42;;;;;;;17.25;11.90;;;;;;;19.43;100.00;-18549.69;4984615;28;20058;-82
2023/08/20 04:10:08;;;;;;;18.63;12.18;;;;;;;19.52;100.00;-18552.03;4983953;28;20146;-85
2023/08/20 04:12:33;;;;;;;19.60;11.43;;;;;;;19.51;100.00;-18551.88;4979800;28;20050;-82
2023/08/20 04:14:59;;;;;;;21.67;12.52;;;;;;;19.45;100.00;-18550.25;4979918;28;20471;-84
2023/08/20 04:17:24;;;;;;;20.77;11.63;;;;;;;19.41;100.00;-18549.16;4979844;28;20132;-83
2023/08/20 04:19:50;;;;;;;18.77;12.68;;;;;;;19.16;100.00;-18542.47;4980867;28;20053;-82
2023/08/20 04:22:15;;;;;;;17.48;11.18;;;;;;;19.04;100.00;-18539.34;4984916;28;20038;-84
2023/08/20 04:24:40;;;;;;;20.42;11.48;;;;;;;19.12;100.00;-18541.38;4983102;28;20050;-83
2023/08/20 04:27:06;;;;;;;19.05;11.23;;;;;;;19.03;100.00;-18539.06;4998347;28;20034;-82
2023/08/20 04:29:32;;;;;;;17.00;10.52;;;;;;;19.00;100.00;-18538.25;4985334;28;20414;-82
2023/08/20 04:31:58;;;;;;;15.18;10.98;;;;;;;19.00;100.00;-18538.13;4988983;28;20046;-81
2023/08/20 04:34:23;;;;;;;21.73;10.35;;;;;;;19.01;100.00;-18538.41;4981226;28;20051;-86
2023/08/20 04:36:48;;;;;;;17.45;11.27;;;;;;;18.90;100.00;-18535.53;4980884;28;20050;-84
2023/08/20 04:39:14;;;;;;;16.38;11.10;;;;;;;18.84;100.00;-18533.91;4997848;28;20621;-82
2023/08/20 04:41:39;;;;;;;18.33;10.85;;;;;;;19.04;100.00;-18539.34;4977272;28;20521;-83
2023/08/20 04:44:04;;;;;;;16.65;11.13;;;;;;;19.02;100.00;-18538.81;4988004;28;20046;-83
2023/08/20 04:46:30;;;;;;;16.75;10.55;;;;;;;18.94;100.00;-18536.63;4985266;28;20122;-82
2023/08/20 04:48:55;;;;;;;20.05;11.20;;;;;;;18.88;100.00;-18535.00;4982634;28;20077;-82
2023/08/20 04:51:21;;;;;;;17.42;11.05;;;;;;;18.91;100.00;-18535.94;4988066;28;20045;-84
2023/08/20 04:53:47;;;;;;;18.83;11.80;;;;;;;18.87;100.00;-18534.84;4986279;28;20116;-83
2023/08/20 04:56:13;;;;;;;19.42;10.98;;;;;;;18.97;100.00;-18537.31;4980968;28;20065;-81
2023/08/20 04:58:38;;;;;;;18.02;11.60;;;;;;;18.87;100.00;-18534.72;4982778;28;20533;-82
2023/08/20 05:01:03;;;;;;;20.88;12.10;;;;;;;18.75;100.00;-18531.44;4996185;28;20557;-83
2023/08/20 05:03:29;;;;;;;19.88;12.07;;;;;;;18.59;100.00;-18527.34;4979097;28;20058;-81
2023/08/20 05:05:54;;;;;;;16.55;11.65;;;;;;;18.66;100.00;-18529.13;4987181;28;20046;-82
2023/08/20 05:08:19;;;;;;;18.85;12.02;;;;;;;18.66;100.00;-18529.25;4981573;28;20057;-81
2023/08/20 05:10:45;;;;;;;18.15;11.43;;;;;;;18.89;100.00;-18535.25;4987827;28;20066;-81
2023/08/20 05:13:11;;;;;;;18.02;12.45;;;;;;;18.75;100.00;-18531.44;5000081;28;20042;-84
2023/08/20 05:15:36;;;;;;;21.65;12.30;;;;;;;18.86;100.00;-18534.44;4978081;28;20114;-83
2023/08/20 05:18:01;;;;;;;22.40;13.07;;;;;;;19.00;100.00;-18538.25;4991402;28;20129;-81
2023/08/20 05:20:27;;;;;;;20.38;12.85;;;;;;;19.15;100.00;-18542.22;4988544;28;20413;-82
2023/08/20 05:22:52;;;;;;;22.23;12.98;;;;;;;19.24;100.00;-18544.66;4983872;28;20065;-84
2023/08/20 05:25:17;;;;;;;19.52;12.55;;;;;;;19.18;100.00;-18543.03;4987897;28;20038;-81
2023/08/20 05:27:43;;;;;;;19.00;13.25;;;;;;;19.25;100.00;-18544.78;4987668;28;20540;-83
2023/08/20 05:30:09;;;;;;;22.05;12.98;;;;;;;19.32;100.00;-18546.84;4984753;28;20094;-83
2023/08/20 05:32:34;;;;;;;22.08;13.70;;;;;;;19.49;100.00;-18551.34;4985205;28;20684;-81
2023/08/20 05:34:59;;;;;;;24.70;14.73;;;;;;;19.50;100.00;-18551.59;4983739;28;20054;-81
2023/08/20 05:37:25;;;;;;;23.08;14.75;;;;;;;19.69;100.00;-18556.53;4985848;28;20453;-84
2023/08/20 05:39:50;;;;;;;25.92;15.50;;;;;;;19.79;100.00;-18559.25;4984317;28;20035;-81
2023/08/20 05:42:15;;;;;;;22.15;14.05;;;;;;;19.74;100.00;-18558.00;4988156;28;20386;-82
2023/08/20 05:44:42;;;;;;;23.88;15.07;;;;;;;19.84;100.00;-18560.59;4981374;28;20077;-83
2023/08/20 05:47:07;;;;;;;23.95;13.93;;;;;;;19.79;100.00;-18559.25;4999346;28;20113;-83
2023/08/20 05:49:32;;;;;;;22.38;13.95;;;;;;;19.81;100.00;-18559.91;4980016;28;20129;-82
2023/08/20 05:51:58;;;;;;;23.73;13.75;;;;;;;19.97;100.00;-18564.16;4987823;28;20038;-81
2023/08/20 05:54:23;;;;;;;21.95;14.73;;;;;;;20.12;100.00;-18567.97;4980208;28;20038;-84
2023/08/20 05:56:48;;;;;;;27.73;14.82;;;;;;;20.13;100.00;-18568.22;4987163;28;21410;-81
2023/08/20 05:59:14;;;;;;;25.52;13.75;;;;;;;20.18;100.00;-18569.59;4999663;28;20129;-82
2023/08/20 06:01:39;;;;;;;25.08;14.88;;;;;;;20.18;100.00;-18569.72;4985730;28;20042;-81
2023/08/20 06:04:05;;;;;;;27.05;15.70;;;;;;;20.27;100.00;-18572.03;4989563;28;20620;-81
2023/08/20 06:06:30;;;;;;;26.15;14.52;;;;;;;20.41;100.00;-18575.84;4986879;28;20053;-82
2023/08/20 06:08:55;;;;;;;31.65;17.75;;;;;;;20.48;100.00;-18577.75;4992077;28;20038;-83
2023/08/20 06:11:21;;;;;;;32.33;17.08;;;;;;;20.60;100.00;-18580.88;4991795;28;20106;-81
2023/08/20 06:13:46;;;;;;;31.67;17.33;;;;;;;20.66;100.00;-18582.38;4991757;28;20038;-82
2023/08/20 06:16:12;;;;;;;24.98;15.77;;;;;;;20.72;100.00;-18584.00;4991084;28;20058;-82
2023/08/20 06:18:37;;;;;;;26.95;15.88;;;;;;;20.89;100.00;-18588.63;4991766;28;29459;-82
2023/08/20 06:21:03;;;;;;;25.13;15.30;;;;;;;20.99;100.00;-18591.22;4990222;28;20121;-82
2023/08/20 06:23:29;;;;;;;26.08;15.70;;;;;;;20.96;100.00;-18590.53;4991327;28;20042;-82
2023/08/20 06:25:54;;;;;;;25.92;13.60;;;;;;;21.16;100.00;-18595.72;4991638;28;20077;-82
2023/08/20 06:28:20;;;;;;;22.80;14.32;;;;;;;21.36;100.00;-18601.16;4991625;28;20034;-81
2023/08/20 06:30:45;;;;;;;23.02;13.85;;;;;;;21.53;100.00;-18605.50;4990633;28;20044;-82
2023/08/20 06:33:11;;;;;;;21.92;13.43;;;;;;;21.56;100.00;-18606.31;4990142;28;20034;-86
2023/08/20 06:35:37;;;;;;;21.73;13.40;;;;;;;21.72;100.00;-18610.53;4990078;28;20101;-83
2023/08/20 06:38:03;;;;;;;23.73;14.20;;;;;;;21.74;100.00;-18611.22;4991272;28;20035;-82
2023/08/20 06:40:28;;;;;;;22.45;13.13;;;;;;;21.88;100.00;-18614.88;5004867;28;20042;-81
2023/08/20 06:42:54;;;;;;;25.92;14.82;;;;;;;22.04;100.00;-18619.22;4988547;28;20038;-82
2023/08/20 06:45:19;;;;;;;18.00;12.02;;;;;;;22.07;100.00;-18620.03;4991653;28;20034;-82
2023/08/20 06:47:44;;;;;;;20.85;13.52;;;;;;;22.24;100.00;-18624.38;4990384;28;20452;-82
2023/08/20 06:50:10;;;;;;;22.17;13.05;;;;;;;22.36;100.00;-18627.53;4991089;28;20054;-84
2023/08/20 06:52:35;;;;;;;18.67;11.35;;;;;;;22.37;100.00;-18627.78;4992408;28;20046;-83
2023/08/20 06:55:00;;;;;;;20.50;13.30;;;;;;;22.62;100.00;-18634.44;4991492;28;20042;-83
2023/08/20 06:57:26;;;;;;;20.77;13.23;;;;;;;22.53;100.00;-18632.13;4991340;28;20104;-82
2023/08/20 06:59:51;;;;;;;24.15;13.40;;;;;;;22.54;100.00;-18632.41;4991180;28;20038;-84
2023/08/20 07:02:17;;;;;;;24.98;13.65;;;;;;;22.88;100.00;-18641.38;4992498;28;20039;-83
2023/08/20 07:04:42;;;;;;;24.38;15.45;;;;;;;22.95;100.00;-18643.41;4990878;28;21117;-83
2023/08/20 07:07:08;;;;;;;25.70;14.77;;;;;;;23.02;100.00;-18645.16;4989998;28;20054;-81
2023/08/20 07:09:33;;;;;;;28.75;15.13;;;;;;;23.02;100.00;-18645.03;4992322;28;20042;-83
2023/08/20 07:11:59;;;;;;;26.25;15.90;;;;;;;23.19;100.00;-18649.66;4992996;28;20050;-81
2023/08/20 07:14:24;;;;;;;28.88;15.43;;;;;;;23.32;100.00;-18653.03;4991906;28;20045;-82
2023/08/20 07:16:50;;;;;;;27.90;17.33;;;;;;;23.35;100.00;-18653.84;4989721;28;20054;-82
2023/08/20 07:19:15;;;;;;;27.48;15.73;;;;;;;23.34;100.00;-18653.56;4989930;28;20037;-81
2023/08/20 07:21:40;;;;;;;25.67;15.48;;;;;;;23.54;100.00;-18659.00;4989602;28;20049;-81
2023/08/20 07:24:06;;;;;;;26.80;16.42;;;;;;;23.73;100.00;-18664.03;4989990;28;20378;-81
2023/08/20 07:26:32;;;;;;;27.45;16.00;;;;;;;23.84;100.00;-18667.00;4989148;28;20040;-82
2023/08/20 07:28:57;;;;;;;27.10;16.80;;;;;;;23.89;100.00;-18668.09;4990653;28;20042;-81
2023/08/20 07:31:28;;;;;;;29.48;18.60;;;;;;;23.98;100.00;-18670.66;4990960;28;20042;-82
2023/08/20 07:33:55;;;;;;;26.67;17.98;;;;;;;24.21;100.00;-18676.75;5001877;28;20662;-81
2023/08/20 07:36:21;;;;;;;24.25;15.68;;;;;;;24.26;100.00;-18677.97;4986405;28;20126;-81
2023/08/20 07:38:47;;;;;;;25.80;16.45;;;;;;;24.30;100.00;-18679.06;4990007;28;20130;-82
2023/08/20 07:41:12;;;;;;;27.27;17.88;;;;;;;24.31;100.00;-18679.34;4989589;28;20469;-81
2023/08/20 07:43:39;;;;;;;30.98;17.58;;;;;;;24.48;100.00;-18683.94;4988234;28;20049;-83
2023/08/20 07:46:06;;;;;;;32.30;17.85;;;;;;;24.78;100.00;-18691.81;4993337;28;20042;-82
2023/08/20 07:48:31;;;;;;;30.35;18.27;;;;;;;24.81;100.00;-18692.47;4991319;28;20142;-83
2023/08/20 07:50:56;;;;;;;32.55;18.80;;;;;;;24.81;100.00;-18692.63;4994191;28;20498;-82
2023/08/20 07:53:22;;;;;;;32.40;17.65;;;;;;;24.70;100.00;-18689.63;4987923;28;20042;-82
2023/08/20 07:55:47;;;;;;;32.75;18.98;;;;;;;24.72;100.00;-18690.19;5008936;28;20121;-83
2023/08/20 07:58:13;;;;;;;30.60;18.33;;;;;;;24.69;100.00;-18689.50;5022687;22;20049;-80
2023/08/20 08:00:38;;;;;;;27.60;18.52;;;;;;;24.98;100.00;-18697.09;5017675;28;20061;-80
2023/08/20 08:03:04;;;;;;;28.83;18.50;;;;;;;25.17;100.00;-18702.09;5023890;28;20041;-80
2023/08/20 08:05:30;;;;;;;27.77;17.25;;;;;;;25.36;100.00;-18707.25;5015975;28;20068;-80
2023/08/20 08:07:55;;;;;;;27.40;16.65;;;;;;;25.17;100.00;-18702.09;5013711;28;20038;-80
2023/08/20 08:10:21;;;;;;;26.42;16.10;;;;;;;25.45;100.00;-18709.53;4998083;28;20049;-80
2023/08/20 08:12:47;;;;;;;26.55;17.17;;;;;;;25.35;100.00;-18706.97;4996873;28;20493;-80
2023/08/20 08:15:13;;;;;;;26.00;15.57;;;;;;;25.41;100.00;-18708.59;4996673;28;20109;-80
2023/08/20 08:17:38;;;;;;;25.85;15.27;;;;;;;25.42;100.00;-18708.88;4994823;28;20034;-79
2023/08/20 08:20:04;;;;;;;24.40;14.93;;;;;;;25.54;100.00;-18711.84;4998677;28;20038;-80
2023/08/20 08:22:29;;;;;;;23.60;16.33;;;;;;;25.61;100.00;-18713.88;4997736;28;20038;-80
2023/08/20 08:24:55;;;;;;;28.60;16.83;;;;;;;25.68;100.00;-18715.63;4998015;28;20100;-80
2023/08/20 08:27:20;;;;;;;32.97;17.67;;;;;;;25.60;100.00;-18713.47;5001185;28;20097;-80
2023/08/20 08:29:45;;;;;;;29.35;17.15;;;;;;;25.35;100.00;-18706.97;5002182;28;20030;-80
2023/08/20 08:32:11;;;;;;;27.20;17.23;;;;;;;25.40;100.00;-18708.19;4993002;28;20042;-80
2023/08/20 08:34:36;;;;;;;31.65;16.52;;;;;;;25.47;100.00;-18709.94;4999992;28;20042;-80
2023/08/20 08:37:01;;;;;;;25.15;17.08;;;;;;;25.39;100.00;-18708.06;4998036;28;20096;-80
2023/08/20 08:39:27;;;;;;;30.15;16.55;;;;;;;25.27;100.00;-18704.81;5001988;28;20069;-79
2023/08/20 08:42:00;;;;;;;22.42;16.10;;;;;;;25.31;100.00;-18705.88;4999812;28;20050;-80
2023/08/20 08:44:27;;;;;;;27.17;16.50;;;;;;;25.47;100.00;-18709.94;4995586;28;20066;-80
2023/08/20 08:46:53;;;;;;;24.00;15.52;;;;;;;25.56;100.00;-18712.38;4994151;28;20031;-80
2023/08/20 08:49:19;;;;;;;23.83;16.33;;;;;;;25.66;100.00;-18715.09;4996566;28;20049;-80
2023/08/20 08:51:46;;;;;;;26.15;16.75;;;;;;;25.66;100.00;-18715.22;4996736;28;20038;-81
2023/08/20 08:54:13;;;;;;;29.63;16.65;;;;;;;25.66;100.00;-18715.09;5029154;28;20547;-81
2023/08/20 08:56:39;;;;;;;33.38;18.52;;;;;;;25.87;100.00;-18720.63;5006935;28;20489;-80
2023/08/20 08:59:05;;;;;;;23.92;16.15;;;;;;;25.59;100.00;-18713.19;4995835;28;20057;-80
2023/08/20 09:01:31;;;;;;;24.38;16.38;;;;;;;25.57;100.00;-18712.78;5005514;28;20479;-80
2023/08/20 09:03:56;;;;;;;31.75;17.00;;;;;;;25.74;100.00;-18717.25;4999340;28;20038;-80
2023/08/20 09:06:22;;;;;;;25.30;16.15;;;;;;;25.55;100.00;-18712.25;5001930;28;20041;-80
2023/08/20 09:08:47;;;;;;;26.20;15.93;;;;;;;25.64;100.00;-18714.56;4996277;28;20061;-80
2023/08/20 09:11:13;;;;;;;25.00;17.58;;;;;;;25.97;100.00;-18723.22;5006368;28;20041;-80
2023/08/20 09:13:40;;;;;;;27.45;17.40;;;;;;;26.13;100.00;-18727.41;4999218;28;20049;-80
2023/08/20 09:16:07;;;;;;;24.80;16.95;;;;;;;26.13;100.00;-18727.53;4991121;28;20108;-80
2023/08/20 09:18:41;;;;;;;23.75;16.52;;;;;;;26.14;100.00;-18727.81;4997699;28;20038;-80
2023/08/20 09:21:08;;;;;;;25.42;17.48;;;;;;;26.26;100.00;-18731.03;5000174;28;20048;-80
2023/08/20 09:23:34;;;;;;;26.02;17.95;;;;;;;26.30;100.00;-18732.00;4994790;28;20050;-80
2023/08/20 09:26:01;;;;;;;27.73;18.95;;;;;;;26.17;100.00;-18728.63;4997634;28;20697;-80
2023/08/20 09:28:27;;;;;;;26.95;18.27;;;;;;;26.40;100.00;-18734.56;4999785;28;20069;-80
2023/08/20 09:31:01;;;;;;;24.38;17.58;;;;;;;26.36;100.00;-18733.47;4998970;28;20034;-80
2023/08/20 09:33:27;;;;;;;28.77;16.92;;;;;;;26.36;100.00;-18733.47;4992936;28;20044;-80
2023/08/20 09:35:56;;;;;;;30.25;19.70;;;;;;;26.64;100.00;-18740.91;4989128;28;20050;-79
2023/08/20 09:38:22;;;;;;;;;;;;;;;26.81;100.00;-18745.38;4992381;28;20042;-80
2023/08/20 09:40:52;;;;;;;26.45;18.65;;;;;;;26.80;100.00;-18745.25;4992877;28;19918;-80
2023/08/20 09:43:18;;;;;;;24.38;17.98;;;;;;;26.97;100.00;-18749.69;4988800;28;20366;-80
2023/08/20 09:45:47;;;;;;;26.65;17.42;;;;;;;26.76;100.00;-18744.16;4991538;28;20074;-80
2023/08/20 09:48:16;;;;;;;24.85;17.58;;;;;;;26.66;100.00;-18741.47;5005335;28;20133;-80
2023/08/20 09:50:44;;;;;;;23.45;17.50;;;;;;;26.69;100.00;-18742.28;5001205;28;20030;-80
2023/08/20 09:53:44;;;;;;;24.80;17.97;;;;;;;26.73;100.00;-18743.50;5008060;28;20050;-80
2023/08/20 09:56:30;;;;;;;28.75;18.75;;;;;;;26.88;100.00;-18747.41;4985002;28;20096;-80
2023/08/20 09:58:57;;;;;;;26.02;20.92;;;;;;;27.00;100.00;-18750.66;4972962;28;20042;-80
2023/08/20 10:01:25;;;;;;;24.73;17.98;;;;;;;26.82;100.00;-18745.78;4992142;28;20050;-80
2023/08/20 10:03:51;;;;;;;28.50;20.35;;;;;;;26.69;100.00;-18742.28;4999972;28;20042;-80
2023/08/20 10:06:17;;;;;;;27.70;19.27;;;;;;;26.55;100.00;-18738.63;4991288;28;20485;-79
2023/08/20 10:08:43;;;;;;;30.90;20.05;;;;;;;26.68;100.00;-18742.13;4992510;28;20038;-78
2023/08/20 10:11:08;;;;;;;25.20;18.13;;;;;;;26.92;100.00;-18748.34;5003681;28;20038;-79
2023/08/20 10:13:34;;;;;;;27.60;17.75;;;;;;;26.95;100.00;-18749.16;4995816;28;20125;-79
2023/08/20 10:15:59;;;;;;;21.45;16.67;;;;;;;27.05;100.00;-18751.72;4989068;28;20038;-79
2023/08/20 10:18:26;;;;;;;21.58;16.52;;;;;;;27.17;100.00;-18754.97;4998360;28;20066;-79
2023/08/20 10:20:52;;;;;;;25.42;17.05;;;;;;;27.45;100.00;-18762.41;4989422;28;20065;-78
2023/08/20 10:23:24;;;;;;;21.98;14.70;;;;;;;27.33;100.00;-18759.16;4999823;28;20050;-79
2023/08/20 10:25:52;;;;;;;17.60;11.68;;;;;;;27.52;100.00;-18764.28;4990042;28;20034;-79
2023/08/20 10:28:22;;;;;;;15.50;11.80;;;;;;;27.41;100.00;-18761.31;5015686;28;20045;-78
2023/08/20 10:31:11;;;;;;;18.20;11.93;;;;;;;27.40;100.00;-18761.19;5007015;28;20494;-79
2023/08/20 10:33:56;;;;;;;17.50;11.68;;;;;;;27.35;100.00;-18759.69;4996086;28;20042;-79
2023/08/20 10:36:25;;;;;;;17.73;10.60;;;;;;;27.35;100.00;-18759.84;4985184;28;20556;-79
2023/08/20 10:38:55;;;;;;;14.32;8.93;;;;;;;27.26;100.00;-18757.41;4988380;28;20112;-79
2023/08/20 10:41:34;;;;;;;14.80;8.80;;;;;;;27.08;100.00;-18752.69;4988417;28;20038;-79
2023/08/20 10:44:00;;;;;;;12.55;7.78;;;;;;;27.44;100.00;-18762.13;4982666;28;20046;-79
2023/08/20 10:46:30;;;;;;;11.38;7.15;;;;;;;27.40;100.00;-18761.06;4995029;28;20128;-79
2023/08/20 10:49:01;;;;;;;14.80;7.80;;;;;;;27.54;100.00;-18764.81;5003656;28;20142;-79
2023/08/20 10:51:32;;;;;;;10.73;5.53;;;;;;;27.61;96.76;-18766.59;4995715;28;20043;-79
2023/08/20 10:54:00;;;;;;;11.85;4.45;;;;;;;27.58;89.48;-18765.91;5005757;28;20105;-79
2023/08/20 10:56:48;;;;;;;9.60;4.97;;;;;;;27.72;94.36;-18769.56;4998192;28;20046;-79
2023/08/20 10:59:22;;;;;;;12.20;6.13;;;;;;;27.67;100.00;-18768.34;4994974;28;20066;-79
2023/08/20 11:01:49;;;;;;;7.75;3.55;;;;;;;27.79;97.15;-18771.31;5000994;28;20049;-79
2023/08/20 11:04:19;;;;;;;7.80;3.83;;;;;;;27.95;93.87;-18775.63;5002289;28;20053;-79